sensor_id;sensor_type;location;lat;lon;timestamp;pressure;altitude;pressure_sealevel;temperature;humidity
49072;BME280;52656;52.610;10.236;2023-05-23T00:00:12;100804.66;;;17.35;86.59
49072;BME280;52656;52.610;10.236;2023-05-23T00:02:38;100811.25;;;17.30;86.34
49072;BME280;52656;52.610;10.236;2023-05-23T00:05:04;100812.41;;;17.25;87.03
49072;BME280;52656;52.610;10.236;2023-05-23T00:07:31;100813.31;;;17.26;87.31
49072;BME280;52656;52.610;10.236;2023-05-23T00:09:56;100813.84;;;17.31;86.87
49072;BME280;52656;52.610;10.236;2023-05-23T00:12:22;100809.13;;;17.35;87.79
49072;BME280;52656;52.610;10.236;2023-05-23T00:14:47;100815.38;;;17.35;86.56
49072;BME280;52656;52.610;10.236;2023-05-23T00:17:12;100811.88;;;17.20;88.00
49072;BME280;52656;52.610;10.236;2023-05-23T00:19:37;100805.88;;;17.17;87.29
49072;BME280;52656;52.610;10.236;2023-05-23T00:22:03;100812.41;;;17.13;86.49
49072;BME280;52656;52.610;10.236;2023-05-23T00:24:28;100811.84;;;17.08;88.99
49072;BME280;52656;52.610;10.236;2023-05-23T00:26:53;100804.06;;;17.17;86.34
49072;BME280;52656;52.610;10.236;2023-05-23T00:29:19;100821.22;;;17.27;85.74
49072;BME280;52656;52.610;10.236;2023-05-23T00:31:44;100801.09;;;17.35;85.76
49072;BME280;52656;52.610;10.236;2023-05-23T00:34:15;100802.53;;;17.40;87.22
49072;BME280;52656;52.610;10.236;2023-05-23T00:36:44;100794.84;;;17.48;87.23
49072;BME280;52656;52.610;10.236;2023-05-23T00:39:12;100801.59;;;17.54;87.58
49072;BME280;52656;52.610;10.236;2023-05-23T00:41:47;100797.63;;;17.60;86.64
49072;BME280;52656;52.610;10.236;2023-05-23T00:44:13;100797.22;;;17.66;86.99
49072;BME280;52656;52.610;10.236;2023-05-23T00:46:38;100803.91;;;17.73;87.01
49072;BME280;52656;52.610;10.236;2023-05-23T00:49:05;100794.88;;;17.74;86.24
49072;BME280;52656;52.610;10.236;2023-05-23T00:51:30;100793.28;;;17.71;86.46
49072;BME280;52656;52.610;10.236;2023-05-23T00:53:56;100792.72;;;17.66;87.38
49072;BME280;52656;52.610;10.236;2023-05-23T00:56:23;100800.03;;;17.64;86.21
49072;BME280;52656;52.610;10.236;2023-05-23T00:58:50;100795.25;;;17.55;86.06
49072;BME280;52656;52.610;10.236;2023-05-23T01:01:16;100789.03;;;17.42;86.64
49072;BME280;52656;52.610;10.236;2023-05-23T01:03:43;100789.84;;;17.30;87.14
49072;BME280;52656;52.610;10.236;2023-05-23T01:06:10;100784.34;;;17.18;87.73
49072;BME280;52656;52.610;10.236;2023-05-23T01:08:35;100784.13;;;17.09;87.98
49072;BME280;52656;52.610;10.236;2023-05-23T01:11:05;100791.69;;;17.02;87.82
49072;BME280;52656;52.610;10.236;2023-05-23T01:13:42;100787.59;;;16.96;87.76
49072;BME280;52656;52.610;10.236;2023-05-23T01:16:29;100793.66;;;16.86;88.54
49072;BME280;52656;52.610;10.236;2023-05-23T01:21:59;100785.53;;;16.87;87.40
49072;BME280;52656;52.610;10.236;2023-05-23T01:24:34;100778.16;;;16.91;87.29
49072;BME280;52656;52.610;10.236;2023-05-23T01:29:42;100785.38;;;17.03;86.70
49072;BME280;52656;52.610;10.236;2023-05-23T01:32:10;100778.78;;;17.09;87.37
49072;BME280;52656;52.610;10.236;2023-05-23T01:34:37;100787.47;;;17.12;87.68
49072;BME280;52656;52.610;10.236;2023-05-23T01:37:08;100790.03;;;17.14;88.34
49072;BME280;52656;52.610;10.236;2023-05-23T01:39:33;100782.66;;;17.17;87.97
49072;BME280;52656;52.610;10.236;2023-05-23T01:41:59;100781.19;;;17.26;87.54
49072;BME280;52656;52.610;10.236;2023-05-23T01:44:24;100783.44;;;17.32;87.18
49072;BME280;52656;52.610;10.236;2023-05-23T01:46:50;100784.72;;;17.39;86.62
49072;BME280;52656;52.610;10.236;2023-05-23T01:49:15;100780.78;;;17.45;86.63
49072;BME280;52656;52.610;10.236;2023-05-23T01:51:41;100777.47;;;17.41;86.81
49072;BME280;52656;52.610;10.236;2023-05-23T01:54:06;100783.56;;;17.43;87.38
49072;BME280;52656;52.610;10.236;2023-05-23T01:56:32;100783.47;;;17.45;87.40
49072;BME280;52656;52.610;10.236;2023-05-23T01:58:59;100781.53;;;17.47;86.51
49072;BME280;52656;52.610;10.236;2023-05-23T02:01:26;100782.69;;;17.43;86.93
49072;BME280;52656;52.610;10.236;2023-05-23T02:03:51;100796.94;;;17.43;86.61
49072;BME280;52656;52.610;10.236;2023-05-23T02:06:17;100802.19;;;17.32;87.91
49072;BME280;52656;52.610;10.236;2023-05-23T02:08:42;100794.84;;;17.48;86.25
49072;BME280;52656;52.610;10.236;2023-05-23T02:11:07;100801.09;;;17.35;86.49
49072;BME280;52656;52.610;10.236;2023-05-23T02:13:33;100807.66;;;17.31;86.15
49072;BME280;52656;52.610;10.236;2023-05-23T02:15:59;100803.78;;;17.35;85.47
49072;BME280;52656;52.610;10.236;2023-05-23T02:18:24;100804.31;;;17.27;86.00
49072;BME280;52656;52.610;10.236;2023-05-23T02:20:54;100802.91;;;17.34;85.14
49072;BME280;52656;52.610;10.236;2023-05-23T02:23:20;100805.78;;;17.18;85.92
49072;BME280;52656;52.610;10.236;2023-05-23T02:25:45;100806.50;;;17.20;86.42
49072;BME280;52656;52.610;10.236;2023-05-23T02:28:11;100803.66;;;17.23;85.22
49072;BME280;52656;52.610;10.236;2023-05-23T02:30:37;100803.44;;;17.26;85.07
49072;BME280;52656;52.610;10.236;2023-05-23T02:33:05;100803.66;;;17.23;85.01
49072;BME280;52656;52.610;10.236;2023-05-23T02:35:32;100805.47;;;17.23;84.86
49072;BME280;52656;52.610;10.236;2023-05-23T02:37:57;100826.22;;;16.92;86.47
49072;BME280;52656;52.610;10.236;2023-05-23T02:40:22;100820.81;;;17.07;85.48
49072;BME280;52656;52.610;10.236;2023-05-23T02:42:47;100817.06;;;16.82;86.47
49072;BME280;52656;52.610;10.236;2023-05-23T02:45:15;100813.00;;;17.04;85.20
49072;BME280;52656;52.610;10.236;2023-05-23T02:47:40;100814.06;;;17.01;85.07
49072;BME280;52656;52.610;10.236;2023-05-23T02:50:05;100826.31;;;16.91;85.52
49072;BME280;52656;52.610;10.236;2023-05-23T02:52:31;100826.31;;;16.91;85.16
49072;BME280;52656;52.610;10.236;2023-05-23T02:54:56;100826.41;;;16.89;84.94
49072;BME280;52656;52.610;10.236;2023-05-23T02:57:21;100830.53;;;16.66;86.68
49072;BME280;52656;52.610;10.236;2023-05-23T02:59:47;100836.34;;;16.87;84.98
49072;BME280;52656;52.610;10.236;2023-05-23T03:02:12;100844.59;;;16.70;84.92
49072;BME280;52656;52.610;10.236;2023-05-23T03:04:37;100838.41;;;16.69;84.29
49072;BME280;52656;52.610;10.236;2023-05-23T03:07:02;100849.94;;;16.70;83.95
49072;BME280;52656;52.610;10.236;2023-05-23T03:09:28;100852.31;;;16.60;83.93
49072;BME280;52656;52.610;10.236;2023-05-23T03:11:53;100848.03;;;16.58;83.43
49072;BME280;52656;52.610;10.236;2023-05-23T03:14:18;100848.81;;;16.45;83.32
49072;BME280;52656;52.610;10.236;2023-05-23T03:16:44;100852.22;;;16.47;83.23
49072;BME280;52656;52.610;10.236;2023-05-23T03:19:09;100853.19;;;16.46;83.23
49072;BME280;52656;52.610;10.236;2023-05-23T03:21:34;100856.16;;;16.42;83.15
49072;BME280;52656;52.610;10.236;2023-05-23T03:24:00;100850.69;;;16.43;82.81
49072;BME280;52656;52.610;10.236;2023-05-23T03:26:25;100847.66;;;16.35;82.92
49072;BME280;52656;52.610;10.236;2023-05-23T03:28:51;100850.41;;;16.34;82.77
49072;BME280;52656;52.610;10.236;2023-05-23T03:31:16;100850.41;;;16.34;82.68
49072;BME280;52656;52.610;10.236;2023-05-23T03:33:41;100847.84;;;16.32;82.75
49072;BME280;52656;52.610;10.236;2023-05-23T03:36:07;100850.63;;;16.31;82.48
49072;BME280;52656;52.610;10.236;2023-05-23T03:38:32;100841.44;;;16.35;82.23
49072;BME280;52656;52.610;10.236;2023-05-23T03:40:57;100845.94;;;16.34;81.79
49072;BME280;52656;52.610;10.236;2023-05-23T03:43:22;100841.53;;;16.33;81.79
49072;BME280;52656;52.610;10.236;2023-05-23T03:45:48;100841.25;;;16.23;82.10
49072;BME280;52656;52.610;10.236;2023-05-23T03:48:13;100840.78;;;16.17;82.03
49072;BME280;52656;52.610;10.236;2023-05-23T03:50:38;100837.84;;;16.21;81.70
49072;BME280;52656;52.610;10.236;2023-05-23T03:53:04;100839.56;;;16.22;81.30
49072;BME280;52656;52.610;10.236;2023-05-23T03:55:30;100842.97;;;16.24;81.44
49072;BME280;52656;52.610;10.236;2023-05-23T03:57:56;100835.81;;;16.25;81.45
49072;BME280;52656;52.610;10.236;2023-05-23T04:00:21;100840.69;;;16.33;81.10
49072;BME280;52656;52.610;10.236;2023-05-23T04:02:46;100844.78;;;16.38;81.47
49072;BME280;52656;52.610;10.236;2023-05-23T04:05:12;100839.66;;;16.49;81.22
49072;BME280;52656;52.610;10.236;2023-05-23T04:07:37;100840.09;;;16.56;80.43
49072;BME280;52656;52.610;10.236;2023-05-23T04:10:03;100838.66;;;16.65;79.89
49072;BME280;52656;52.610;10.236;2023-05-23T04:12:28;100847.66;;;16.64;80.08
49072;BME280;52656;52.610;10.236;2023-05-23T04:14:57;100853.19;;;16.61;80.24
49072;BME280;52656;52.610;10.236;2023-05-23T04:17:22;100852.91;;;16.51;80.51
49072;BME280;52656;52.610;10.236;2023-05-23T04:19:51;100855.09;;;16.30;81.51
49072;BME280;52656;52.610;10.236;2023-05-23T04:22:17;100853.31;;;16.45;81.07
49072;BME280;52656;52.610;10.236;2023-05-23T04:24:42;100856.63;;;16.48;80.80
49072;BME280;52656;52.610;10.236;2023-05-23T04:27:08;100855.75;;;16.48;80.43
49072;BME280;52656;52.610;10.236;2023-05-23T04:29:33;100854.13;;;16.60;79.59
49072;BME280;52656;52.610;10.236;2023-05-23T04:32:00;100853.47;;;16.85;78.09
49072;BME280;52656;52.610;10.236;2023-05-23T04:34:25;100844.03;;;17.06;76.98
49072;BME280;52656;52.610;10.236;2023-05-23T04:36:51;100843.25;;;17.18;76.53
49072;BME280;52656;52.610;10.236;2023-05-23T04:39:18;100851.78;;;17.11;76.40
49072;BME280;52656;52.610;10.236;2023-05-23T04:41:43;100850.00;;;16.97;76.49
49072;BME280;52656;52.610;10.236;2023-05-23T04:44:09;100847.56;;;17.07;76.94
49072;BME280;52656;52.610;10.236;2023-05-23T04:46:35;100855.41;;;17.10;76.60
49072;BME280;52656;52.610;10.236;2023-05-23T04:49:01;100850.06;;;17.10;76.56
49072;BME280;52656;52.610;10.236;2023-05-23T04:51:27;100849.03;;;16.98;76.64
49072;BME280;52656;52.610;10.236;2023-05-23T04:53:52;100853.41;;;16.72;77.33
49072;BME280;52656;52.610;10.236;2023-05-23T04:56:17;100850.69;;;16.86;77.60
49072;BME280;52656;52.610;10.236;2023-05-23T04:58:47;100844.00;;;16.79;77.81
49072;BME280;52656;52.610;10.236;2023-05-23T05:01:13;100853.47;;;16.70;77.80
49072;BME280;52656;52.610;10.236;2023-05-23T05:03:38;100851.84;;;16.68;77.85
49072;BME280;52656;52.610;10.236;2023-05-23T05:06:04;100859.94;;;16.66;78.32
49072;BME280;52656;52.610;10.236;2023-05-23T05:08:30;100856.53;;;16.64;78.07
49072;BME280;52656;52.610;10.236;2023-05-23T05:10:55;100848.69;;;16.61;77.94
49072;BME280;52656;52.610;10.236;2023-05-23T05:13:20;100855.88;;;16.46;78.69
49072;BME280;52656;52.610;10.236;2023-05-23T05:15:46;100853.56;;;16.55;78.24
49072;BME280;52656;52.610;10.236;2023-05-23T05:18:11;100858.34;;;16.49;79.01
49072;BME280;52656;52.610;10.236;2023-05-23T05:20:37;100863.88;;;16.61;77.98
49072;BME280;52656;52.610;10.236;2023-05-23T05:23:02;100861.72;;;16.53;78.63
49072;BME280;52656;52.610;10.236;2023-05-23T05:25:28;100866.66;;;16.59;78.27
49072;BME280;52656;52.610;10.236;2023-05-23T05:27:57;100865.59;;;16.47;78.83
49072;BME280;52656;52.610;10.236;2023-05-23T05:30:23;100870.09;;;16.47;79.15
49072;BME280;52656;52.610;10.236;2023-05-23T05:32:48;100871.06;;;16.46;79.45
49072;BME280;52656;52.610;10.236;2023-05-23T05:35:13;100873.84;;;16.44;79.20
49072;BME280;52656;52.610;10.236;2023-05-23T05:37:38;100876.47;;;16.30;79.80
49072;BME280;52656;52.610;10.236;2023-05-23T05:40:04;100870.56;;;16.39;79.50
49072;BME280;52656;52.610;10.236;2023-05-23T05:42:32;100884.13;;;16.36;79.82
49072;BME280;52656;52.610;10.236;2023-05-23T05:44:57;100885.16;;;16.48;79.64
49072;BME280;52656;52.610;10.236;2023-05-23T05:47:22;100881.66;;;16.47;79.01
49072;BME280;52656;52.610;10.236;2023-05-23T05:49:48;100879.44;;;16.25;80.17
49072;BME280;52656;52.610;10.236;2023-05-23T05:52:13;100881.66;;;16.47;79.15
49072;BME280;52656;52.610;10.236;2023-05-23T05:54:38;100874.69;;;16.45;79.53
49072;BME280;52656;52.610;10.236;2023-05-23T05:57:04;100879.19;;;16.44;79.57
49072;BME280;52656;52.610;10.236;2023-05-23T05:59:29;100874.47;;;16.34;80.55
49072;BME280;52656;52.610;10.236;2023-05-23T06:01:54;100870.78;;;16.36;79.93
49072;BME280;52656;52.610;10.236;2023-05-23T06:04:20;100869.06;;;16.35;79.65
49072;BME280;52656;52.610;10.236;2023-05-23T06:06:45;100868.09;;;16.36;80.21
49072;BME280;52656;52.610;10.236;2023-05-23T06:09:10;100875.25;;;16.36;80.69
49072;BME280;52656;52.610;10.236;2023-05-23T06:11:36;100873.53;;;16.49;79.60
49072;BME280;52656;52.610;10.236;2023-05-23T06:14:04;100872.59;;;16.50;80.04
49072;BME280;52656;52.610;10.236;2023-05-23T06:16:30;100867.41;;;16.47;80.27
49072;BME280;52656;52.610;10.236;2023-05-23T06:18:55;100868.28;;;16.47;79.88
49072;BME280;52656;52.610;10.236;2023-05-23T06:21:20;100862.84;;;16.49;80.14
49072;BME280;52656;52.610;10.236;2023-05-23T06:23:45;100870.75;;;16.50;79.59
49072;BME280;52656;52.610;10.236;2023-05-23T06:26:10;100868.09;;;16.50;80.34
49072;BME280;52656;52.610;10.236;2023-05-23T06:28:37;100868.47;;;16.59;79.13
49072;BME280;52656;52.610;10.236;2023-05-23T06:31:03;100869.91;;;16.64;79.33
49072;BME280;52656;52.610;10.236;2023-05-23T06:33:29;100871.81;;;16.62;79.89
49072;BME280;52656;52.610;10.236;2023-05-23T06:35:55;100871.28;;;16.71;78.51
49072;BME280;52656;52.610;10.236;2023-05-23T06:38:21;100871.06;;;16.74;79.65
49072;BME280;52656;52.610;10.236;2023-05-23T06:40:46;100869.22;;;16.89;78.02
49072;BME280;52656;52.610;10.236;2023-05-23T06:43:11;100876.50;;;16.87;78.76
49072;BME280;52656;52.610;10.236;2023-05-23T06:45:37;100869.03;;;16.92;78.21
49072;BME280;52656;52.610;10.236;2023-05-23T06:48:03;100866.06;;;16.97;77.93
49072;BME280;52656;52.610;10.236;2023-05-23T06:50:28;100870.34;;;16.99;77.72
49072;BME280;52656;52.610;10.236;2023-05-23T06:52:53;100870.72;;;17.08;77.57
49072;BME280;52656;52.610;10.236;2023-05-23T06:55:19;100869.47;;;17.13;77.33
49072;BME280;52656;52.610;10.236;2023-05-23T06:57:44;100868.34;;;17.03;77.70
49072;BME280;52656;52.610;10.236;2023-05-23T07:00:10;100864.78;;;17.17;77.07
49072;BME280;52656;52.610;10.236;2023-05-23T07:02:37;100873.56;;;17.19;77.36
49072;BME280;52656;52.610;10.236;2023-05-23T07:05:03;100870.31;;;17.14;78.58
49072;BME280;52656;52.610;10.236;2023-05-23T07:07:28;100869.25;;;17.16;77.81
49072;BME280;52656;52.610;10.236;2023-05-23T07:09:53;100870.22;;;17.15;77.64
49072;BME280;52656;52.610;10.236;2023-05-23T07:12:19;100871.84;;;17.18;77.70
49072;BME280;52656;52.610;10.236;2023-05-23T07:14:44;100875.31;;;17.06;78.01
49072;BME280;52656;52.610;10.236;2023-05-23T07:17:09;100873.19;;;17.11;77.90
49072;BME280;52656;52.610;10.236;2023-05-23T07:19:34;100872.81;;;17.17;78.13
49072;BME280;52656;52.610;10.236;2023-05-23T07:22:00;100867.44;;;17.17;78.22
49072;BME280;52656;52.610;10.236;2023-05-23T07:24:25;100875.22;;;16.93;78.87
49072;BME280;52656;52.610;10.236;2023-05-23T07:26:50;100877.94;;;17.20;77.81
49072;BME280;52656;52.610;10.236;2023-05-23T07:29:16;100878.66;;;17.09;78.17
49072;BME280;52656;52.610;10.236;2023-05-23T07:31:41;100881.59;;;17.19;77.51
49072;BME280;52656;52.610;10.236;2023-05-23T07:34:06;100874.88;;;17.26;77.47
49072;BME280;52656;52.610;10.236;2023-05-23T07:36:31;100877.84;;;17.48;76.62
49072;BME280;52656;52.610;10.236;2023-05-23T07:38:59;100874.44;;;17.59;76.10
49072;BME280;52656;52.610;10.236;2023-05-23T07:41:25;100880.50;;;17.75;75.53
49072;BME280;52656;52.610;10.236;2023-05-23T07:43:50;100879.81;;;17.59;76.53
49072;BME280;52656;52.610;10.236;2023-05-23T07:46:16;100886.22;;;17.57;76.69
49072;BME280;52656;52.610;10.236;2023-05-23T07:48:41;100888.09;;;17.42;77.27
49072;BME280;52656;52.610;10.236;2023-05-23T07:51:06;100891.56;;;17.30;77.54
49072;BME280;52656;52.610;10.236;2023-05-23T07:53:32;100891.66;;;17.01;78.34
49072;BME280;52656;52.610;10.236;2023-05-23T07:55:57;100896.75;;;16.91;78.44
49072;BME280;52656;52.610;10.236;2023-05-23T07:58:22;100891.50;;;16.75;78.97
49072;BME280;52656;52.610;10.236;2023-05-23T08:00:48;100901.03;;;16.80;78.77
49072;BME280;52656;52.610;10.236;2023-05-23T08:03:14;100900.97;;;16.67;80.03
49072;BME280;52656;52.610;10.236;2023-05-23T08:05:41;100900.19;;;16.79;79.14
49072;BME280;52656;52.610;10.236;2023-05-23T08:08:06;100900.47;;;16.60;79.90
49072;BME280;52656;52.610;10.236;2023-05-23T08:10:31;100904.56;;;16.80;79.06
49072;BME280;52656;52.610;10.236;2023-05-23T08:12:57;100908.03;;;16.82;78.96
49072;BME280;52656;52.610;10.236;2023-05-23T08:15:24;100911.84;;;16.78;78.62
49072;BME280;52656;52.610;10.236;2023-05-23T08:17:49;100916.53;;;16.74;78.42
49072;BME280;52656;52.610;10.236;2023-05-23T08:20:15;100914.22;;;16.68;78.75
49072;BME280;52656;52.610;10.236;2023-05-23T08:22:40;100910.31;;;16.60;79.02
49072;BME280;52656;52.610;10.236;2023-05-23T08:25:06;100926.41;;;16.44;79.58
49072;BME280;52656;52.610;10.236;2023-05-23T08:27:31;100924.06;;;16.54;78.98
49072;BME280;52656;52.610;10.236;2023-05-23T08:29:56;100926.63;;;16.55;79.41
49072;BME280;52656;52.610;10.236;2023-05-23T08:32:22;100930.00;;;16.59;78.70
49072;BME280;52656;52.610;10.236;2023-05-23T08:34:47;100925.88;;;16.53;78.73
49072;BME280;52656;52.610;10.236;2023-05-23T08:37:13;100924.13;;;16.52;78.60
49072;BME280;52656;52.610;10.236;2023-05-23T08:39:38;100932.84;;;16.56;78.77
49072;BME280;52656;52.610;10.236;2023-05-23T08:42:04;100931.13;;;16.55;79.20
49072;BME280;52656;52.610;10.236;2023-05-23T08:44:30;100938.19;;;16.56;78.37
49072;BME280;52656;52.610;10.236;2023-05-23T08:46:55;100941.44;;;16.61;78.55
49072;BME280;52656;52.610;10.236;2023-05-23T08:49:24;100946.38;;;16.52;79.24
49072;BME280;52656;52.610;10.236;2023-05-23T08:51:50;100955.47;;;16.50;79.66
49072;BME280;52656;52.610;10.236;2023-05-23T08:54:16;100959.97;;;16.49;79.71
49072;BME280;52656;52.610;10.236;2023-05-23T08:56:41;100958.59;;;16.42;79.56
49072;BME280;52656;52.610;10.236;2023-05-23T08:59:08;100969.69;;;16.36;79.55
49072;BME280;52656;52.610;10.236;2023-05-23T09:01:36;100971.22;;;16.40;79.51
49072;BME280;52656;52.610;10.236;2023-05-23T09:04:05;100972.53;;;16.33;80.11
49072;BME280;52656;52.610;10.236;2023-05-23T09:06:31;100976.44;;;16.28;80.25
49072;BME280;52656;52.610;10.236;2023-05-23T09:08:56;100983.94;;;16.21;80.58
49072;BME280;52656;52.610;10.236;2023-05-23T09:11:22;100982.72;;;16.12;80.86
49072;BME280;52656;52.610;10.236;2023-05-23T09:13:48;100987.28;;;16.10;81.06
49072;BME280;52656;52.610;10.236;2023-05-23T09:16:15;100995.19;;;16.12;80.41
49072;BME280;52656;52.610;10.236;2023-05-23T09:18:43;100999.25;;;16.03;80.64
49072;BME280;52656;52.610;10.236;2023-05-23T09:21:09;101012.22;;;15.95;81.30
49072;BME280;52656;52.610;10.236;2023-05-23T09:23:36;101009.03;;;15.88;81.45
49072;BME280;52656;52.610;10.236;2023-05-23T09:26:08;101024.31;;;15.86;81.00
49072;BME280;52656;52.610;10.236;2023-05-23T09:28:35;101021.00;;;15.97;80.32
49072;BME280;52656;52.610;10.236;2023-05-23T09:31:01;101019.56;;;15.91;79.45
49072;BME280;52656;52.610;10.236;2023-05-23T09:33:46;101024.91;;;15.91;80.07
49072;BME280;52656;52.610;10.236;2023-05-23T09:36:12;101025.97;;;16.03;79.32
49072;BME280;52656;52.610;10.236;2023-05-23T09:38:38;101036.28;;;15.95;79.44
49072;BME280;52656;52.610;10.236;2023-05-23T09:41:04;101040.84;;;15.77;80.59
49072;BME280;52656;52.610;10.236;2023-05-23T09:43:29;101037.63;;;15.70;80.59
49072;BME280;52656;52.610;10.236;2023-05-23T09:46:00;101051.25;;;15.50;81.35
49072;BME280;52656;52.610;10.236;2023-05-23T09:48:28;101054.06;;;15.47;80.98
49072;BME280;52656;52.610;10.236;2023-05-23T09:50:54;101053.72;;;15.53;80.48
49072;BME280;52656;52.610;10.236;2023-05-23T09:53:20;101057.69;;;15.46;80.80
49072;BME280;52656;52.610;10.236;2023-05-23T09:55:49;101053.81;;;15.52;80.82
49072;BME280;52656;52.610;10.236;2023-05-23T09:58:16;101062.16;;;15.61;80.13
49072;BME280;52656;52.610;10.236;2023-05-23T10:00:44;101058.84;;;15.58;79.99
49072;BME280;52656;52.610;10.236;2023-05-23T10:03:11;101071.56;;;15.53;78.80
49072;BME280;52656;52.610;10.236;2023-05-23T10:05:49;101069.63;;;15.39;79.16
49072;BME280;52656;52.610;10.236;2023-05-23T10:08:26;101076.72;;;15.56;78.67
49072;BME280;52656;52.610;10.236;2023-05-23T10:13:19;101094.13;;;15.47;78.70
49072;BME280;52656;52.610;10.236;2023-05-23T10:15:47;101093.50;;;15.42;78.70
49072;BME280;52656;52.610;10.236;2023-05-23T10:18:17;101095.16;;;15.44;78.43
49072;BME280;52656;52.610;10.236;2023-05-23T10:20:47;101104.44;;;15.37;78.19
49072;BME280;52656;52.610;10.236;2023-05-23T10:23:14;101100.66;;;15.41;78.44
49072;BME280;52656;52.610;10.236;2023-05-23T10:25:41;101118.47;;;15.41;78.15
49072;BME280;52656;52.610;10.236;2023-05-23T10:28:08;101119.38;;;15.24;78.43
49072;BME280;52656;52.610;10.236;2023-05-23T10:30:33;101117.06;;;15.18;78.58
49072;BME280;52656;52.610;10.236;2023-05-23T10:32:59;101122.38;;;15.18;78.24
49072;BME280;52656;52.610;10.236;2023-05-23T10:44:11;101136.25;;;15.24;78.70
49072;BME280;52656;52.610;10.236;2023-05-23T10:46:54;101132.38;;;15.30;78.34
49072;BME280;52656;52.610;10.236;2023-05-23T10:49:39;101135.03;;;15.14;77.70
49072;BME280;52656;52.610;10.236;2023-05-23T10:52:05;101148.41;;;15.30;76.93
49072;BME280;52656;52.610;10.236;2023-05-23T10:54:49;101155.66;;;15.44;76.48
49072;BME280;52656;52.610;10.236;2023-05-23T10:57:16;101160.84;;;15.47;76.32
49072;BME280;52656;52.610;10.236;2023-05-23T10:59:44;101159.63;;;15.37;76.10
49072;BME280;52656;52.610;10.236;2023-05-23T11:02:14;101162.44;;;15.34;76.00
49072;BME280;52656;52.610;10.236;2023-05-23T11:04:40;101151.06;;;15.30;75.55
49072;BME280;52656;52.610;10.236;2023-05-23T11:07:32;101159.31;;;15.25;75.31
49072;BME280;52656;52.610;10.236;2023-05-23T11:10:08;101164.72;;;15.41;74.78
49072;BME280;52656;52.610;10.236;2023-05-23T11:12:40;101165.59;;;15.24;74.49
49072;BME280;52656;52.610;10.236;2023-05-23T11:15:21;101171.75;;;15.27;73.89
49072;BME280;52656;52.610;10.236;2023-05-23T11:17:50;101169.56;;;15.17;73.09
49072;BME280;52656;52.610;10.236;2023-05-23T11:20:17;101178.44;;;15.18;73.35
49072;BME280;52656;52.610;10.236;2023-05-23T11:23:00;101184.06;;;15.12;74.41
49072;BME280;52656;52.610;10.236;2023-05-23T11:25:48;101170.94;;;15.07;74.16
49072;BME280;52656;52.610;10.236;2023-05-23T11:28:14;101187.63;;;14.95;74.96
49072;BME280;52656;52.610;10.236;2023-05-23T11:30:41;101200.63;;;15.01;74.60
49072;BME280;52656;52.610;10.236;2023-05-23T11:33:08;101195.75;;;14.92;74.69
49072;BME280;52656;52.610;10.236;2023-05-23T11:35:36;101207.19;;;14.94;73.37
49072;BME280;52656;52.610;10.236;2023-05-23T11:38:02;101201.09;;;14.92;73.75
49072;BME280;52656;52.610;10.236;2023-05-23T11:40:35;101209.66;;;14.81;74.11
49072;BME280;52656;52.610;10.236;2023-05-23T11:43:03;101221.72;;;14.88;74.02
49072;BME280;52656;52.610;10.236;2023-05-23T11:45:30;101222.34;;;14.93;73.47
49072;BME280;52656;52.610;10.236;2023-05-23T11:47:56;101231.28;;;14.92;73.46
49072;BME280;52656;52.610;10.236;2023-05-23T11:50:22;101220.31;;;14.98;72.84
49072;BME280;52656;52.610;10.236;2023-05-23T11:52:49;101226.50;;;14.82;72.80
49072;BME280;52656;52.610;10.236;2023-05-23T11:55:21;101232.06;;;14.77;73.19
49072;BME280;52656;52.610;10.236;2023-05-23T11:57:47;101239.03;;;14.80;73.14
49072;BME280;52656;52.610;10.236;2023-05-23T12:00:13;101239.69;;;14.66;73.81
49072;BME280;52656;52.610;10.236;2023-05-23T12:02:43;101242.34;;;14.66;73.10
49072;BME280;52656;52.610;10.236;2023-05-23T12:05:09;101240.72;;;14.82;72.15
49072;BME280;52656;52.610;10.236;2023-05-23T12:07:39;101246.81;;;14.65;72.90
49072;BME280;52656;52.610;10.236;2023-05-23T12:10:05;101246.84;;;15.02;71.73
49072;BME280;52656;52.610;10.236;2023-05-23T12:12:31;101245.91;;;15.03;71.12
49072;BME280;52656;52.610;10.236;2023-05-23T12:14:57;101261.34;;;14.96;70.08
49072;BME280;52656;52.610;10.236;2023-05-23T12:17:22;101260.88;;;14.88;68.52
49072;BME280;52656;52.610;10.236;2023-05-23T12:19:48;101257.44;;;15.03;68.32
49072;BME280;52656;52.610;10.236;2023-05-23T12:22:13;101268.81;;;15.59;66.28
49072;BME280;52656;52.610;10.236;2023-05-23T12:24:44;101256.53;;;16.22;63.20
49072;BME280;52656;52.610;10.236;2023-05-23T12:27:13;101256.44;;;16.87;61.95
49072;BME280;52656;52.610;10.236;2023-05-23T12:29:41;101250.09;;;17.04;60.08
49072;BME280;52656;52.610;10.236;2023-05-23T12:32:13;101253.34;;;17.39;58.60
49072;BME280;52656;52.610;10.236;2023-05-23T12:34:41;101249.66;;;17.56;56.68
49072;BME280;52656;52.610;10.236;2023-05-23T12:37:07;101248.88;;;17.40;55.76
49072;BME280;52656;52.610;10.236;2023-05-23T12:39:33;101245.19;;;17.71;57.04
49072;BME280;52656;52.610;10.236;2023-05-23T12:42:08;101257.25;;;17.92;56.96
49072;BME280;52656;52.610;10.236;2023-05-23T12:44:34;101257.84;;;17.39;57.51
49072;BME280;52656;52.610;10.236;2023-05-23T12:47:00;101257.19;;;17.35;58.31
49072;BME280;52656;52.610;10.236;2023-05-23T12:49:25;101266.66;;;17.41;56.96
49072;BME280;52656;52.610;10.236;2023-05-23T12:51:51;101255.25;;;17.07;57.64
49072;BME280;52656;52.610;10.236;2023-05-23T12:54:16;101257.38;;;17.46;57.25